Terminal Aerodrome Forecast
Issued by NWS Newport/Morehead City, NC

Home | Current Version | Previous Version | Graphics & Text | Print | Product List | Glossary On
Versions: 1 2 3 4 5 6 7 8 9 10 11 12 13 14 15 16
087
FTUS42 KMHX 231732
TAFEWN
TAF
KEWN 231732Z 2318/2418 05006KT P6SM SCT050
     FM240800 VRB04KT P6SM SCT020
     FM241400 04007KT P6SM BKN200=

USA.gov is the U.S. government's official web portal to all federal, state and local government web resources and services.